Time;durP1;ratioP1;P1;durP2;ratioP2;P2;SDS_P1;SDS_P2;PMS_P1;PMS_P2;Temp;Humidity;BMP_temperature;BMP_pressure;BME280_temperature;BME280_humidity;BME280_pressure;Samples;Min_cycle;Max_cycle;Signal;HPM_P1;HPM_P2
2021/11/10 00:00:41;;;;;;;44.10;13.57;;;;;;;;;;5011932;28;20109;-75
2021/11/10 00:03:07;;;;;;;43.15;12.77;;;;;;;;;;5012505;28;20050;-74
2021/11/10 00:05:33;;;;;;;45.53;12.75;;;;;;;;;;5030221;28;20022;-76
2021/11/10 00:07:59;;;;;;;41.85;12.98;;;;;;;;;;5026807;28;20041;-75
2021/11/10 00:10:25;;;;;;;39.45;12.32;;;;;;;;;;5023163;28;20009;-75
2021/11/10 00:12:51;;;;;;;37.97;12.25;;;;;;;;;;5021909;28;20041;-75
2021/11/10 00:15:17;;;;;;;38.28;11.82;;;;;;;;;;5008776;28;20172;-75
2021/11/10 00:17:43;;;;;;;39.75;12.90;;;;;;;;;;5016330;28;20030;-75
2021/11/10 00:20:10;;;;;;;37.13;10.60;;;;;;;;;;5012631;28;20485;-75
2021/11/10 00:22:36;;;;;;;39.70;11.82;;;;;;;;;;5008613;28;20037;-75
2021/11/10 00:25:03;;;;;;;29.75;11.52;;;;;;;;;;5008826;28;20040;-75
2021/11/10 00:27:29;;;;;;;43.60;12.70;;;;;;;;;;5013085;28;20494;-75
2021/11/10 00:29:56;;;;;;;29.23;10.00;;;;;;;;;;5000615;28;20084;-75
2021/11/10 00:32:22;;;;;;;30.52;10.18;;;;;;;;;;5004757;28;20065;-75
2021/11/10 00:34:48;;;;;;;25.65;8.25;;;;;;;;;;5013581;28;20109;-76
2021/11/10 00:37:14;;;;;;;31.23;10.23;;;;;;;;;;5011953;28;20057;-75
2021/11/10 00:39:39;;;;;;;33.83;10.57;;;;;;;;;;5012500;28;20034;-76
2021/11/10 00:42:06;;;;;;;28.45;9.70;;;;;;;;;;5012347;28;20527;-76
2021/11/10 00:44:31;;;;;;;28.13;8.00;;;;;;;;;;4993362;28;20128;-76
2021/11/10 00:46:57;;;;;;;24.13;8.73;;;;;;;;;;5012795;28;20105;-75
2021/11/10 00:49:23;;;;;;;41.65;10.18;;;;;;;;;;5012348;28;20025;-75
2021/11/10 00:51:49;;;;;;;21.77;7.93;;;;;;;;;;5010632;28;20050;-75
2021/11/10 00:54:15;;;;;;;32.08;9.98;;;;;;;;;;5012252;28;20030;-74
2021/11/10 00:56:41;;;;;;;30.38;8.65;;;;;;;;;;5011333;28;20426;-75
2021/11/10 00:59:07;;;;;;;30.13;12.63;;;;;;;;;;5012737;28;20467;-75
2021/11/10 01:01:33;;;;;;;33.72;11.05;;;;;;;;;;5011604;28;20034;-75
2021/11/10 01:04:00;;;;;;;30.92;9.65;;;;;;;;;;5011860;28;20040;-75
2021/11/10 01:06:27;;;;;;;29.42;9.98;;;;;;;;;;5012969;28;20080;-75
2021/11/10 01:08:53;;;;;;;31.15;10.25;;;;;;;;;;4993109;28;20116;-75
2021/11/10 01:11:20;;;;;;;29.55;9.57;;;;;;;;;;4993723;28;20546;-75
2021/11/10 01:13:46;;;;;;;31.98;10.45;;;;;;;;;;5011495;28;20017;-75
2021/11/10 01:16:12;;;;;;;28.95;10.80;;;;;;;;;;5009165;28;20029;-75
2021/11/10 01:18:38;;;;;;;35.85;11.07;;;;;;;;;;4992570;28;20053;-75
2021/11/10 01:21:05;;;;;;;32.10;10.70;;;;;;;;;;5010840;28;20057;-75
2021/11/10 01:23:31;;;;;;;31.13;11.00;;;;;;;;;;5010943;28;20136;-75
2021/11/10 01:25:57;;;;;;;29.80;12.90;;;;;;;;;;5010800;28;20797;-75
2021/11/10 01:28:23;;;;;;;25.80;9.80;;;;;;;;;;4993316;28;20088;-74
2021/11/10 01:30:49;;;;;;;32.88;9.27;;;;;;;;;;4993541;28;20068;-75
2021/11/10 01:33:15;;;;;;;29.35;10.93;;;;;;;;;;4992582;28;20023;-75
2021/11/10 01:35:41;;;;;;;32.05;9.98;;;;;;;;;;5010796;28;20067;-75
2021/11/10 01:38:07;;;;;;;30.05;11.13;;;;;;;;;;5008097;28;20449;-75
2021/11/10 01:40:33;;;;;;;35.85;10.07;;;;;;;;;;5007624;28;20029;-75
2021/11/10 01:43:17;;;;;;;33.33;12.95;;;;;;;;;;5010574;28;20034;-75
2021/11/10 01:45:43;;;;;;;22.42;9.00;;;;;;;;;;4991655;28;20033;-75
2021/11/10 01:48:09;;;;;;;28.27;10.38;;;;;;;;;;5006793;28;20029;-75
2021/11/10 01:50:35;;;;;;;34.88;12.65;;;;;;;;;;4982070;28;20126;-75
2021/11/10 01:53:01;;;;;;;35.88;10.93;;;;;;;;;;5000325;28;20482;-75
2021/11/10 01:55:27;;;;;;;39.55;12.00;;;;;;;;;;5007002;28;20026;-74
2021/11/10 01:57:53;;;;;;;39.15;11.98;;;;;;;;;;4990276;28;20022;-74
2021/11/10 02:00:21;;;;;;;34.78;12.30;;;;;;;;;;5008358;28;20038;-74
2021/11/10 02:02:51;;;;;;;37.65;13.23;;;;;;;;;;5008100;28;20044;-74
2021/11/10 02:05:17;;;;;;;33.15;11.80;;;;;;;;;;4993278;28;20025;-74
2021/11/10 02:07:44;;;;;;;39.22;12.75;;;;;;;;;;4989797;28;20052;-74
2021/11/10 02:10:12;;;;;;;34.50;12.68;;;;;;;;;;5008236;28;20034;-74
2021/11/10 02:12:38;;;;;;;40.05;13.18;;;;;;;;;;5010063;28;20026;-75
2021/11/10 02:15:06;;;;;;;38.38;15.77;;;;;;;;;;5009817;28;20033;-74
2021/11/10 02:17:32;;;;;;;42.88;13.40;;;;;;;;;;5010860;28;20391;-74
2021/11/10 02:19:58;;;;;;;43.42;13.00;;;;;;;;;;4990309;28;20042;-74
2021/11/10 02:22:24;;;;;;;43.20;13.77;;;;;;;;;;5009315;28;20380;-74
2021/11/10 02:24:50;;;;;;;42.40;14.13;;;;;;;;;;5010114;28;20105;-74
2021/11/10 02:27:22;;;;;;;43.63;14.77;;;;;;;;;;4991737;28;20108;-74
2021/11/10 02:29:49;;;;;;;44.50;14.30;;;;;;;;;;5010072;28;20104;-74
2021/11/10 02:32:15;;;;;;;46.88;13.93;;;;;;;;;;5010446;28;20025;-74
2021/11/10 02:34:42;;;;;;;38.45;13.80;;;;;;;;;;4989101;28;20482;-74
2021/11/10 02:37:09;;;;;;;42.40;14.15;;;;;;;;;;4983062;28;20092;-74
2021/11/10 02:39:36;;;;;;;38.85;13.40;;;;;;;;;;5001251;28;20029;-74
2021/11/10 02:42:03;;;;;;;40.13;14.27;;;;;;;;;;4974297;28;20026;-74
2021/11/10 02:44:29;;;;;;;41.22;14.30;;;;;;;;;;5001811;28;20031;-74
2021/11/10 02:46:55;;;;;;;50.25;16.95;;;;;;;;;;5008856;28;20386;-74
2021/11/10 02:49:23;;;;;;;51.70;17.30;;;;;;;;;;5005901;28;20387;-74
2021/11/10 02:51:55;;;;;;;61.33;18.52;;;;;;;;;;5010348;28;20025;-74
2021/11/10 02:54:21;;;;;;;65.57;21.10;;;;;;;;;;5009995;28;20399;-74
2021/11/10 02:56:47;;;;;;;69.05;19.92;;;;;;;;;;5005471;28;20052;-74
2021/11/10 02:59:13;;;;;;;58.58;19.95;;;;;;;;;;5008657;28;20077;-74
2021/11/10 03:01:39;;;;;;;65.13;19.10;;;;;;;;;;5005935;28;20065;-74
2021/11/10 03:04:06;;;;;;;62.00;21.63;;;;;;;;;;5008444;28;20079;-74
2021/11/10 03:06:32;;;;;;;61.85;20.60;;;;;;;;;;5005820;28;20027;-74
2021/11/10 03:08:58;;;;;;;66.10;21.30;;;;;;;;;;5009858;28;20034;-74
2021/11/10 03:11:29;;;;;;;63.35;21.27;;;;;;;;;;4990927;28;20391;-74
2021/11/10 03:13:55;;;;;;;67.32;19.48;;;;;;;;;;4986732;28;20022;-74
2021/11/10 03:16:21;;;;;;;59.53;20.45;;;;;;;;;;4992083;28;20076;-74
2021/11/10 03:18:47;;;;;;;60.33;20.17;;;;;;;;;;4999785;28;20034;-74
2021/11/10 03:21:13;;;;;;;63.28;21.70;;;;;;;;;;4992413;28;20022;-74
2021/11/10 03:23:39;;;;;;;41.67;14.82;;;;;;;;;;5004029;28;20049;-74
2021/11/10 03:26:05;;;;;;;52.20;15.75;;;;;;;;;;5002061;28;20203;-74
2021/11/10 03:28:31;;;;;;;44.38;14.82;;;;;;;;;;5001536;28;20497;-74
2021/11/10 03:30:57;;;;;;;42.53;14.15;;;;;;;;;;4997151;28;20445;-74
2021/11/10 03:33:23;;;;;;;42.92;13.93;;;;;;;;;;5000573;28;20021;-74
2021/11/10 03:35:49;;;;;;;45.67;14.80;;;;;;;;;;5001605;28;20522;-74
2021/11/10 03:38:15;;;;;;;31.80;11.93;;;;;;;;;;5008066;28;20026;-74
2021/11/10 03:40:41;;;;;;;38.72;13.32;;;;;;;;;;4998521;28;20046;-74
2021/11/10 03:43:07;;;;;;;42.13;12.70;;;;;;;;;;5004073;28;20054;-74
2021/11/10 03:45:33;;;;;;;34.90;12.02;;;;;;;;;;5007210;28;20065;-74
2021/11/10 03:48:00;;;;;;;38.97;13.68;;;;;;;;;;4984360;28;20037;-74
2021/11/10 03:50:26;;;;;;;32.92;11.38;;;;;;;;;;5001404;28;20072;-74
2021/11/10 03:52:52;;;;;;;48.28;11.70;;;;;;;;;;5004411;28;20026;-74
2021/11/10 03:55:18;;;;;;;40.30;14.02;;;;;;;;;;5006554;28;20037;-74
2021/11/10 03:57:44;;;;;;;33.05;11.55;;;;;;;;;;4997115;28;20030;-74
2021/11/10 04:00:10;;;;;;;25.73;9.95;;;;;;;;;;5005786;28;20487;-74
2021/11/10 04:02:36;;;;;;;28.52;10.63;;;;;;;;;;4991874;28;20173;-74
2021/11/10 04:05:03;;;;;;;36.45;10.18;;;;;;;;;;5013313;28;20045;-74
2021/11/10 04:07:29;;;;;;;26.13;11.32;;;;;;;;;;5002330;28;20022;-74
2021/11/10 04:09:55;;;;;;;35.65;11.02;;;;;;;;;;5001619;28;20393;-74
2021/11/10 04:12:21;;;;;;;32.03;9.70;;;;;;;;;;5010353;28;20018;-74
2021/11/10 04:14:47;;;;;;;29.85;10.68;;;;;;;;;;5002537;28;20026;-75
2021/11/10 04:17:12;;;;;;;29.00;9.50;;;;;;;;;;5024026;28;20034;-75
2021/11/10 04:19:38;;;;;;;26.90;9.98;;;;;;;;;;5021511;28;20034;-74
2021/11/10 04:22:05;;;;;;;31.08;10.77;;;;;;;;;;5018846;28;20033;-74
2021/11/10 04:24:31;;;;;;;40.33;10.73;;;;;;;;;;5009302;28;20030;-74
2021/11/10 04:26:57;;;;;;;30.75;9.40;;;;;;;;;;5012693;28;20044;-74
2021/11/10 04:29:23;;;;;;;31.77;11.82;;;;;;;;;;5010294;28;20026;-74
2021/11/10 04:31:49;;;;;;;29.45;9.15;;;;;;;;;;4999254;28;20021;-74
2021/11/10 04:34:14;;;;;;;29.38;9.63;;;;;;;;;;5008562;28;20038;-74
2021/11/10 04:36:40;;;;;;;28.52;9.88;;;;;;;;;;4993783;28;20053;-75
2021/11/10 04:39:06;;;;;;;26.92;11.02;;;;;;;;;;5003676;28;20041;-74
2021/11/10 04:41:32;;;;;;;30.15;8.38;;;;;;;;;;5008218;28;20034;-74
2021/11/10 04:43:58;;;;;;;23.08;9.55;;;;;;;;;;4996164;28;20095;-74
2021/11/10 04:46:29;;;;;;;25.38;8.75;;;;;;;;;;5007898;28;20384;-74
2021/11/10 04:48:55;;;;;;;32.20;10.57;;;;;;;;;;4989308;28;20039;-74
2021/11/10 04:51:23;;;;;;;21.83;9.35;;;;;;;;;;4989949;28;20052;-74
2021/11/10 04:53:49;;;;;;;24.63;10.00;;;;;;;;;;5007124;28;20038;-74
2021/11/10 04:56:15;;;;;;;31.20;8.52;;;;;;;;;;5000289;28;20098;-74
2021/11/10 04:58:42;;;;;;;31.83;8.88;;;;;;;;;;5005496;28;20026;-75
2021/11/10 05:01:18;;;;;;;25.15;8.95;;;;;;;;;;5003664;28;20101;-75
2021/11/10 05:03:44;;;;;;;32.88;9.70;;;;;;;;;;4993105;28;20022;-75
2021/11/10 05:06:10;;;;;;;30.90;9.68;;;;;;;;;;5004755;28;20057;-75
2021/11/10 05:08:36;;;;;;;27.75;9.50;;;;;;;;;;5004102;28;20134;-75
2021/11/10 05:11:02;;;;;;;27.75;9.32;;;;;;;;;;4994627;28;20026;-75
2021/11/10 05:13:28;;;;;;;31.50;9.23;;;;;;;;;;4994659;28;20030;-75
2021/11/10 05:15:54;;;;;;;24.33;9.25;;;;;;;;;;5011645;28;20026;-75
2021/11/10 05:18:21;;;;;;;23.60;8.10;;;;;;;;;;5004339;28;20018;-75
2021/11/10 05:20:48;;;;;;;21.63;10.63;;;;;;;;;;4996218;28;20480;-75
2021/11/10 05:23:15;;;;;;;29.10;9.60;;;;;;;;;;4993368;28;20033;-75
2021/11/10 05:25:41;;;;;;;22.05;9.70;;;;;;;;;;4991297;28;20033;-75
2021/11/10 05:28:07;;;;;;;33.65;10.57;;;;;;;;;;5011294;28;20471;-75
2021/11/10 05:30:36;;;;;;;28.52;11.18;;;;;;;;;;5002387;28;20030;-75
2021/11/10 05:33:02;;;;;;;28.30;9.98;;;;;;;;;;4998204;28;20030;-75
2021/11/10 05:35:28;;;;;;;21.35;9.05;;;;;;;;;;4989216;28;20121;-75
2021/11/10 05:37:54;;;;;;;24.00;9.05;;;;;;;;;;5002480;28;20030;-75
2021/11/10 05:40:20;;;;;;;21.00;8.13;;;;;;;;;;4990891;28;20030;-75
2021/11/10 05:42:46;;;;;;;23.50;11.38;;;;;;;;;;5000757;28;20049;-75
2021/11/10 05:45:12;;;;;;;28.13;10.20;;;;;;;;;;4994165;28;20033;-75
2021/11/10 05:47:38;;;;;;;29.25;9.68;;;;;;;;;;4984079;28;20080;-75
2021/11/10 05:50:08;;;;;;;20.63;10.18;;;;;;;;;;5008092;28;20113;-75
2021/11/10 05:52:34;;;;;;;;;;;;;;;;;;5011280;28;20034;-75
2021/11/10 05:55:00;;;;;;;22.83;9.02;;;;;;;;;;5009479;28;20024;-75
2021/11/10 05:57:26;;;;;;;26.27;8.88;;;;;;;;;;5011366;28;20483;-75
2021/11/10 05:59:52;;;;;;;27.55;8.77;;;;;;;;;;5004193;28;20515;-74
2021/11/10 06:02:21;;;;;;;18.60;7.85;;;;;;;;;;5009387;28;20034;-75
2021/11/10 06:04:47;;;;;;;22.08;9.18;;;;;;;;;;4997680;28;20033;-75
2021/11/10 06:07:13;;;;;;;23.02;8.20;;;;;;;;;;5007552;28;20430;-75
2021/11/10 06:09:40;;;;;;;21.73;7.65;;;;;;;;;;4987852;28;20032;-75
2021/11/10 06:12:06;;;;;;;36.13;11.02;;;;;;;;;;4989943;28;20018;-75
2021/11/10 06:14:32;;;;;;;23.45;8.57;;;;;;;;;;5008862;28;20026;-75
2021/11/10 06:16:58;;;;;;;29.63;11.98;;;;;;;;;;4985419;28;20045;-75
2021/11/10 06:19:26;;;;;;;21.77;8.07;;;;;;;;;;5005436;28;20026;-74
2021/11/10 06:21:52;;;;;;;28.80;10.73;;;;;;;;;;4975487;28;20026;-74
2021/11/10 06:24:20;;;;;;;30.95;8.75;;;;;;;;;;5001293;28;20034;-74
2021/11/10 06:26:46;;;;;;;29.27;9.57;;;;;;;;;;5010662;28;20034;-74
2021/11/10 06:29:12;;;;;;;33.30;10.23;;;;;;;;;;4995426;28;20141;-74
2021/11/10 06:31:38;;;;;;;26.23;9.32;;;;;;;;;;4988634;28;20862;-74
2021/11/10 06:34:04;;;;;;;27.30;8.85;;;;;;;;;;5006771;28;20026;-74
2021/11/10 06:36:30;;;;;;;31.38;10.88;;;;;;;;;;5003134;28;20026;-75
2021/11/10 06:38:56;;;;;;;27.10;9.20;;;;;;;;;;5007406;28;20037;-75
2021/11/10 06:41:22;;;;;;;27.67;9.52;;;;;;;;;;5008968;28;20026;-74
2021/11/10 06:43:49;;;;;;;27.30;9.80;;;;;;;;;;4984680;28;20105;-74
2021/11/10 06:46:15;;;;;;;30.60;11.07;;;;;;;;;;5007004;28;20030;-74
2021/11/10 06:48:41;;;;;;;24.45;10.25;;;;;;;;;;5004692;28;20026;-74
2021/11/10 06:51:07;;;;;;;21.55;9.23;;;;;;;;;;4991172;28;20057;-75
2021/11/10 06:53:34;;;;;;;26.67;9.57;;;;;;;;;;5005652;28;20476;-75
2021/11/10 06:56:00;;;;;;;21.15;10.35;;;;;;;;;;5006604;28;20120;-75
2021/11/10 06:58:25;;;;;;;23.38;9.52;;;;;;;;;;5008488;28;20113;-74
2021/11/10 07:00:51;;;;;;;31.05;10.40;;;;;;;;;;5002121;28;20030;-76
2021/11/10 07:03:17;;;;;;;27.02;10.38;;;;;;;;;;5005107;28;20025;-76
2021/11/10 07:05:43;;;;;;;29.38;9.63;;;;;;;;;;5009146;28;20022;-74
2021/11/10 07:08:09;;;;;;;27.13;10.45;;;;;;;;;;5000390;28;20113;-74
2021/11/10 07:10:35;;;;;;;33.50;12.40;;;;;;;;;;4999758;28;20026;-73
2021/11/10 07:13:01;;;;;;;29.67;10.52;;;;;;;;;;4995920;28;20022;-73
2021/11/10 07:15:27;;;;;;;21.52;9.32;;;;;;;;;;5007371;28;20073;-73
2021/11/10 07:17:53;;;;;;;24.15;8.48;;;;;;;;;;5009710;28;20048;-74
2021/11/10 07:20:20;;;;;;;26.13;9.77;;;;;;;;;;5007648;28;20106;-74
2021/11/10 07:22:46;;;;;;;34.20;11.27;;;;;;;;;;5010375;28;20076;-74
2021/11/10 07:25:13;;;;;;;25.52;10.55;;;;;;;;;;4993790;28;20097;-74
2021/11/10 07:27:39;;;;;;;28.30;10.70;;;;;;;;;;5007122;28;20044;-74
2021/11/10 07:30:06;;;;;;;27.25;9.65;;;;;;;;;;5002893;28;20030;-74
2021/11/10 07:32:32;;;;;;;24.45;8.73;;;;;;;;;;5005160;28;20026;-73
2021/11/10 07:34:58;;;;;;;25.60;8.88;;;;;;;;;;4991428;28;20022;-73
2021/11/10 07:37:24;;;;;;;25.25;10.40;;;;;;;;;;5006273;28;20030;-73
2021/11/10 07:39:50;;;;;;;26.33;8.82;;;;;;;;;;4988471;28;20098;-74
2021/11/10 07:42:16;;;;;;;27.98;10.23;;;;;;;;;;4987580;28;20034;-73
2021/11/10 07:44:42;;;;;;;26.77;9.75;;;;;;;;;;5007448;28;20018;-73
2021/11/10 07:47:17;;;;;;;28.10;9.55;;;;;;;;;;5001673;28;20434;-73
2021/11/10 07:49:44;;;;;;;26.45;10.15;;;;;;;;;;4987136;28;20022;-73
2021/11/10 07:52:10;;;;;;;25.02;7.78;;;;;;;;;;5011351;28;20033;-73
2021/11/10 07:54:36;;;;;;;25.25;8.90;;;;;;;;;;5011373;28;20038;-75
2021/11/10 07:57:02;;;;;;;25.05;9.20;;;;;;;;;;5009147;28;20470;-74
2021/11/10 07:59:28;;;;;;;24.67;9.38;;;;;;;;;;5010969;28;20073;-74
2021/11/10 08:01:54;;;;;;;23.23;11.25;;;;;;;;;;4994516;28;20029;-74
2021/11/10 08:04:20;;;;;;;25.13;8.15;;;;;;;;;;4994303;28;20368;-74
2021/11/10 08:06:46;;;;;;;25.80;9.05;;;;;;;;;;5010812;28;20475;-74
2021/11/10 08:09:12;;;;;;;27.17;9.32;;;;;;;;;;5005957;28;20052;-74
2021/11/10 08:11:38;;;;;;;26.35;8.10;;;;;;;;;;5002405;28;20444;-74
2021/11/10 08:14:05;;;;;;;23.30;9.77;;;;;;;;;;4993699;28;20097;-74
2021/11/10 08:16:31;;;;;;;28.60;9.52;;;;;;;;;;5009749;28;20018;-74
2021/11/10 08:18:57;;;;;;;27.23;8.20;;;;;;;;;;4994788;28;20144;-74
2021/11/10 08:21:23;;;;;;;31.00;9.40;;;;;;;;;;5008213;28;20513;-75
2021/11/10 08:23:49;;;;;;;24.55;9.52;;;;;;;;;;5012815;28;20113;-74
2021/11/10 08:26:15;;;;;;;25.52;9.10;;;;;;;;;;5006964;28;20058;-75
2021/11/10 08:28:42;;;;;;;19.23;8.23;;;;;;;;;;5007080;28;20030;-74
2021/11/10 08:31:08;;;;;;;27.08;8.80;;;;;;;;;;4991855;28;20018;-74
2021/11/10 08:33:33;;;;;;;27.45;9.73;;;;;;;;;;5005727;28;20037;-74
2021/11/10 08:35:59;;;;;;;28.48;9.75;;;;;;;;;;5010796;28;20018;-74
2021/11/10 08:38:26;;;;;;;26.52;8.57;;;;;;;;;;5010518;28;20026;-74
2021/11/10 08:40:52;;;;;;;27.42;10.48;;;;;;;;;;4994919;28;20534;-75
2021/11/10 08:43:19;;;;;;;27.52;11.57;;;;;;;;;;5012081;28;20033;-74
2021/11/10 08:45:47;;;;;;;25.17;9.82;;;;;;;;;;5003506;28;20057;-76
2021/11/10 08:48:13;;;;;;;30.83;9.30;;;;;;;;;;5008287;28;20445;-75
2021/11/10 08:50:41;;;;;;;22.38;8.35;;;;;;;;;;4987773;28;20618;-76
2021/11/10 08:53:08;;;;;;;26.60;7.90;;;;;;;;;;5008319;28;20025;-77
2021/11/10 08:55:34;;;;;;;29.63;10.10;;;;;;;;;;4995075;28;20026;-76
2021/11/10 08:58:01;;;;;;;26.52;8.32;;;;;;;;;;5010231;28;20026;-75
2021/11/10 09:00:30;;;;;;;21.75;9.35;;;;;;;;;;5006265;28;20119;-75
2021/11/10 09:02:56;;;;;;;20.63;8.18;;;;;;;;;;5004125;28;20038;-75
2021/11/10 09:05:22;;;;;;;29.65;8.57;;;;;;;;;;5007392;28;20034;-76
2021/11/10 09:07:48;;;;;;;25.20;9.07;;;;;;;;;;4996061;28;20058;-75
2021/11/10 09:10:16;;;;;;;21.00;8.88;;;;;;;;;;5008220;28;20036;-76
2021/11/10 09:12:42;;;;;;;26.48;9.30;;;;;;;;;;5007943;28;20384;-76
2021/11/10 09:15:11;;;;;;;25.00;9.55;;;;;;;;;;5011625;28;20022;-76
2021/11/10 09:17:38;;;;;;;30.67;9.95;;;;;;;;;;5005475;28;20117;-75
2021/11/10 09:20:05;;;;;;;34.47;10.35;;;;;;;;;;5009031;28;20418;-75
2021/11/10 09:22:32;;;;;;;25.23;10.23;;;;;;;;;;5007719;28;20375;-76
2021/11/10 09:24:58;;;;;;;27.13;9.45;;;;;;;;;;5011476;28;20048;-75
2021/11/10 09:27:24;;;;;;;31.88;9.98;;;;;;;;;;5008229;28;20022;-75
2021/11/10 09:29:51;;;;;;;27.60;9.70;;;;;;;;;;4992988;28;20609;-76
2021/11/10 09:32:17;;;;;;;26.88;9.15;;;;;;;;;;5008025;28;20060;-75
2021/11/10 09:34:43;;;;;;;29.02;11.45;;;;;;;;;;4993129;28;20033;-73
2021/11/10 09:37:09;;;;;;;31.60;8.95;;;;;;;;;;5010316;28;20096;-75
2021/11/10 09:39:35;;;;;;;26.67;10.10;;;;;;;;;;5002268;28;20129;-74
2021/11/10 09:42:01;;;;;;;27.42;9.00;;;;;;;;;;5009572;28;20018;-73
2021/11/10 09:44:27;;;;;;;26.40;8.70;;;;;;;;;;5000310;28;20060;-74
2021/11/10 09:46:54;;;;;;;21.75;8.13;;;;;;;;;;5004738;28;20074;-75
2021/11/10 09:49:21;;;;;;;24.17;9.00;;;;;;;;;;4993520;28;20045;-75
2021/11/10 09:51:48;;;;;;;25.60;9.32;;;;;;;;;;4998840;28;20034;-74
2021/11/10 09:54:15;;;;;;;22.77;9.60;;;;;;;;;;5010163;28;20487;-74
2021/11/10 09:56:43;;;;;;;23.65;8.50;;;;;;;;;;4985893;28;20030;-74
2021/11/10 09:59:09;;;;;;;24.83;8.38;;;;;;;;;;4988617;28;20026;-74
2021/11/10 10:01:37;;;;;;;22.33;9.27;;;;;;;;;;4991167;28;20400;-74
2021/11/10 10:04:03;;;;;;;24.27;9.82;;;;;;;;;;5010647;28;20022;-74
2021/11/10 10:06:29;;;;;;;22.85;9.20;;;;;;;;;;5005107;28;20038;-74
2021/11/10 10:08:57;;;;;;;29.48;9.38;;;;;;;;;;5007225;28;20475;-74
2021/11/10 10:11:22;;;;;;;29.70;10.07;;;;;;;;;;4998523;28;20022;-74
2021/11/10 10:13:49;;;;;;;28.05;10.77;;;;;;;;;;5010307;28;20056;-74
2021/11/10 10:16:21;;;;;;;23.80;8.55;;;;;;;;;;5007875;28;20037;-73
2021/11/10 10:18:48;;;;;;;23.75;8.48;;;;;;;;;;4990669;28;20053;-74
2021/11/10 10:21:15;;;;;;;24.00;8.20;;;;;;;;;;5008326;28;20378;-74
2021/11/10 10:23:42;;;;;;;21.08;8.13;;;;;;;;;;4985673;28;20026;-75
2021/11/10 10:26:16;;;;;;;18.38;8.15;;;;;;;;;;4993351;28;20026;-74
2021/11/10 10:28:43;;;;;;;24.75;9.00;;;;;;;;;;5008743;28;20022;-75
2021/11/10 10:31:11;;;;;;;21.83;7.75;;;;;;;;;;5009075;28;20037;-75
2021/11/10 10:33:41;;;;;;;19.10;7.80;;;;;;;;;;5004738;28;20033;-75
2021/11/10 10:36:07;;;;;;;15.38;7.15;;;;;;;;;;5011283;28;20093;-75
2021/11/10 10:38:36;;;;;;;17.58;7.93;;;;;;;;;;5010921;28;20050;-76
2021/11/10 10:41:05;;;;;;;17.07;8.50;;;;;;;;;;5010407;28;20089;-74
2021/11/10 10:43:39;;;;;;;26.05;9.00;;;;;;;;;;5010809;28;20033;-75
2021/11/10 10:46:05;;;;;;;23.10;7.78;;;;;;;;;;5003058;28;20022;-74
2021/11/10 10:48:31;;;;;;;17.40;7.07;;;;;;;;;;4987578;28;20509;-75
2021/11/10 10:50:58;;;;;;;25.02;8.55;;;;;;;;;;5010325;28;20105;-73
2021/11/10 10:53:35;;;;;;;22.92;8.02;;;;;;;;;;4991502;28;20038;-75
2021/11/10 10:56:21;;;;;;;24.33;9.43;;;;;;;;;;5009893;28;20435;-75
2021/11/10 10:58:49;;;;;;;24.60;8.80;;;;;;;;;;4995619;28;20034;-75
2021/11/10 11:01:22;;;;;;;19.58;7.63;;;;;;;;;;5009558;28;20030;-75
2021/11/10 11:04:21;;;;;;;25.33;8.05;;;;;;;;;;4983959;28;20018;-73
2021/11/10 11:06:57;;;;;;;17.52;6.70;;;;;;;;;;4962086;28;20046;-74
2021/11/10 11:09:27;;;;;;;20.00;7.70;;;;;;;;;;5001691;28;20031;-74
2021/11/10 11:12:27;;;;;;;23.65;6.97;;;;;;;;;;5004145;28;20022;-74
2021/11/10 11:15:02;;;;;;;13.90;7.00;;;;;;;;;;4995852;28;20527;-75
2021/11/10 11:17:35;;;;;;;18.25;7.22;;;;;;;;;;5005424;28;20141;-75
2021/11/10 11:20:03;;;;;;;18.55;8.18;;;;;;;;;;5004011;28;20506;-76
2021/11/10 11:22:31;;;;;;;22.40;7.55;;;;;;;;;;5008565;28;20097;-76
2021/11/10 11:24:58;;;;;;;26.25;9.50;;;;;;;;;;4988070;28;20048;-75
2021/11/10 11:27:25;;;;;;;20.48;7.75;;;;;;;;;;5013685;28;20442;-75
2021/11/10 11:29:59;;;;;;;18.67;6.50;;;;;;;;;;4992645;28;20042;-75
2021/11/10 11:32:25;;;;;;;17.10;6.97;;;;;;;;;;5002987;28;20089;-76
2021/11/10 11:34:52;;;;;;;22.73;9.02;;;;;;;;;;5014019;28;20038;-75
2021/11/10 11:37:18;;;;;;;20.35;9.50;;;;;;;;;;5012420;28;20083;-75
2021/11/10 11:39:44;;;;;;;22.90;9.18;;;;;;;;;;5014091;28;20034;-75
2021/11/10 11:42:10;;;;;;;20.50;7.70;;;;;;;;;;4997344;28;20045;-75
2021/11/10 11:44:38;;;;;;;22.15;8.15;;;;;;;;;;5004075;28;20568;-75
2021/11/10 11:47:06;;;;;;;22.98;7.88;;;;;;;;;;4992969;28;20045;-75
2021/11/10 11:49:32;;;;;;;20.05;7.32;;;;;;;;;;5018613;28;20089;-75
2021/11/10 11:51:59;;;;;;;18.65;8.07;;;;;;;;;;5017335;28;20025;-75
2021/11/10 11:54:25;;;;;;;25.90;8.35;;;;;;;;;;4997434;28;20033;-75
2021/11/10 11:56:51;;;;;;;21.67;8.48;;;;;;;;;;4998666;28;20101;-75
2021/11/10 11:59:18;;;;;;;19.73;7.78;;;;;;;;;;5008607;28;20057;-73
2021/11/10 12:01:44;;;;;;;18.75;7.07;;;;;;;;;;5006967;28;20372;-73
2021/11/10 12:04:12;;;;;;;20.27;9.07;;;;;;;;;;5012774;28;20056;-74
2021/11/10 12:06:46;;;;;;;22.83;8.45;;;;;;;;;;5003966;28;20547;-74
2021/11/10 12:09:16;;;;;;;17.20;8.07;;;;;;;;;;5006509;28;20034;-74
2021/11/10 12:11:42;;;;;;;24.27;8.10;;;;;;;;;;5011703;28;20406;-73
2021/11/10 12:14:11;;;;;;;19.38;8.50;;;;;;;;;;4999733;28;20105;-73
2021/11/10 12:16:52;;;;;;;25.05;8.45;;;;;;;;;;5001327;28;20042;-73
2021/11/10 12:19:21;;;;;;;22.67;7.45;;;;;;;;;;5011043;28;20030;-73
2021/11/10 12:21:49;;;;;;;18.48;6.60;;;;;;;;;;5010623;28;20037;-73
2021/11/10 12:24:20;;;;;;;24.55;7.80;;;;;;;;;;5009094;28;20028;-73
2021/11/10 12:27:04;;;;;;;20.98;8.07;;;;;;;;;;5010043;28;20038;-73
2021/11/10 12:29:45;;;;;;;20.52;7.78;;;;;;;;;;5013220;28;20045;-73
2021/11/10 12:32:12;;;;;;;18.00;7.55;;;;;;;;;;5005125;28;20066;-73
2021/11/10 12:34:38;;;;;;;21.63;6.97;;;;;;;;;;4995176;28;20022;-73
2021/11/10 12:37:09;;;;;;;14.93;6.82;;;;;;;;;;5005912;28;20037;-73
2021/11/10 12:39:35;;;;;;;19.50;7.78;;;;;;;;;;5011211;28;20017;-74
2021/11/10 12:42:03;;;;;;;22.65;7.88;;;;;;;;;;5012520;28;20033;-74
2021/11/10 12:44:33;;;;;;;23.13;7.93;;;;;;;;;;4990838;28;20026;-74
2021/11/10 12:46:59;;;;;;;16.13;6.95;;;;;;;;;;4995198;28;20029;-73
2021/11/10 12:49:26;;;;;;;21.88;6.40;;;;;;;;;;5012385;28;20506;-74
2021/11/10 12:52:10;;;;;;;21.73;6.45;;;;;;;;;;5009133;28;20543;-74
2021/11/10 12:54:37;;;;;;;24.52;7.55;;;;;;;;;;4992718;28;20038;-74
2021/11/10 12:57:04;;;;;;;14.65;6.50;;;;;;;;;;5011393;28;20030;-74
2021/11/10 12:59:31;;;;;;;15.23;6.13;;;;;;;;;;5010349;28;20025;-75
2021/11/10 13:01:59;;;;;;;17.85;6.28;;;;;;;;;;5007975;28;20089;-75
2021/11/10 13:04:25;;;;;;;16.70;8.02;;;;;;;;;;5011729;28;20025;-75
2021/11/10 13:07:08;;;;;;;26.90;10.32;;;;;;;;;;5011287;28;20402;-75
2021/11/10 13:12:00;;;;;;;19.38;7.60;;;;;;;;;;5004492;28;20034;-75
2021/11/10 13:14:28;;;;;;;20.75;8.63;;;;;;;;;;5010651;28;20033;-75
2021/11/10 13:16:57;;;;;;;17.48;6.97;;;;;;;;;;4989912;28;20030;-75
2021/11/10 13:19:43;;;;;;;21.77;8.27;;;;;;;;;;4979914;28;20026;-75
2021/11/10 13:22:10;;;;;;;23.80;8.27;;;;;;;;;;5009571;28;20364;-75
2021/11/10 13:24:39;;;;;;;27.88;7.70;;;;;;;;;;5010988;28;20045;-75
2021/11/10 13:27:05;;;;;;;20.20;8.68;;;;;;;;;;5010950;28;20022;-75
2021/11/10 13:29:39;;;;;;;24.83;8.55;;;;;;;;;;4990905;28;20131;-75
2021/11/10 13:32:10;;;;;;;24.40;9.43;;;;;;;;;;5009144;28;20032;-75
2021/11/10 13:34:36;;;;;;;28.73;9.25;;;;;;;;;;4987641;28;20018;-75
2021/11/10 13:37:03;;;;;;;21.75;8.52;;;;;;;;;;5005901;28;20042;-75
2021/11/10 13:39:29;;;;;;;22.58;8.73;;;;;;;;;;4992850;28;20024;-76
2021/11/10 13:41:56;;;;;;;31.98;8.57;;;;;;;;;;4991256;28;20033;-75
2021/11/10 13:44:23;;;;;;;23.25;8.00;;;;;;;;;;5007912;28;20033;-76
2021/11/10 13:46:51;;;;;;;20.73;7.95;;;;;;;;;;5005979;28;20440;-74
2021/11/10 13:49:18;;;;;;;24.95;9.35;;;;;;;;;;4978331;28;20407;-73
2021/11/10 13:51:55;;;;;;;27.83;9.18;;;;;;;;;;5003354;28;20058;-76
2021/11/10 13:54:21;;;;;;;28.45;8.70;;;;;;;;;;5022247;23;20073;-69
2021/11/10 13:56:50;;;;;;;21.77;8.35;;;;;;;;;;4981124;28;20045;-69
2021/11/10 13:59:21;;;;;;;25.00;9.32;;;;;;;;;;4984969;28;20145;-69
2021/11/10 14:01:52;;;;;;;23.10;8.90;;;;;;;;;;5007171;28;20041;-70
2021/11/10 14:04:21;;;;;;;22.40;9.30;;;;;;;;;;4988668;28;20085;-70
2021/11/10 14:07:04;;;;;;;23.50;9.00;;;;;;;;;;4993701;28;20053;-70
2021/11/10 14:09:32;;;;;;;19.38;8.82;;;;;;;;;;5007238;28;20022;-70
2021/11/10 14:12:17;;;;;;;21.38;8.50;;;;;;;;;;4992801;28;20561;-69
2021/11/10 14:14:43;;;;;;;18.73;8.05;;;;;;;;;;5006361;28;20030;-70
2021/11/10 14:17:09;;;;;;;19.63;8.27;;;;;;;;;;5008915;28;20030;-70
2021/11/10 14:19:35;;;;;;;21.30;8.05;;;;;;;;;;5009465;28;20509;-71
2021/11/10 14:22:01;;;;;;;23.38;8.50;;;;;;;;;;5008824;28;20129;-68
2021/11/10 14:24:28;;;;;;;17.33;8.43;;;;;;;;;;4988712;28;20038;-70
2021/11/10 14:26:54;;;;;;;20.00;9.50;;;;;;;;;;5000461;28;20018;-68
2021/11/10 14:29:20;;;;;;;25.63;9.82;;;;;;;;;;5003337;28;20045;-68